Time;durP1;ratioP1;P1;durP2;ratioP2;P2;SDS_P1;SDS_P2;PMS_P1;PMS_P2;Temp;Humidity;BMP_temperature;BMP_pressure;BME280_temperature;BME280_humidity;BME280_pressure;Samples;Min_cycle;Max_cycle;Signal;HPM_P1;HPM_P2
2022/10/10 00:00:00;;;;;;;18.00;7.37;;;;;;;5.82;77.71;101202.63;2162265;80;28722;-64
2022/10/10 00:03:01;;;;;;;19.07;7.35;;;;;;;5.81;77.81;101210.18;2179398;80;32301;-65
2022/10/10 00:06:03;;;;;;;14.70;6.72;;;;;;;5.80;77.86;101201.77;2196382;79;33169;-63
2022/10/10 00:09:05;;;;;;;10.63;7.17;;;;;;;5.78;77.88;101202.28;2185231;80;29933;-63
2022/10/10 00:12:06;;;;;;;15.30;7.17;;;;;;;5.78;77.99;101199.63;2192884;80;28191;-64
2022/10/10 00:15:10;;;;;;;29.55;7.55;;;;;;;5.77;78.11;101197.86;2189839;79;29064;-63
2022/10/10 00:18:11;;;;;;;17.75;7.45;;;;;;;5.75;78.03;101199.20;2147875;81;32246;-63
2022/10/10 00:21:13;;;;;;;14.25;7.60;;;;;;;5.75;78.12;101200.52;2174249;80;33356;-64
2022/10/10 00:24:14;;;;;;;14.70;7.10;;;;;;;5.76;78.25;101192.11;2135365;82;30460;-64
2022/10/10 00:27:15;;;;;;;18.77;7.45;;;;;;;5.75;78.28;101189.89;2140862;81;27725;-64
2022/10/10 00:30:17;;;;;;;13.05;7.37;;;;;;;5.76;78.28;101182.81;2197300;80;29083;-63
2022/10/10 00:33:18;;;;;;;14.83;7.65;;;;;;;5.76;78.26;101177.48;2142298;81;32303;-64
2022/10/10 00:36:20;;;;;;;17.90;8.18;;;;;;;5.77;78.23;101185.89;2194994;80;34135;-64
2022/10/10 00:39:21;;;;;;;10.75;7.15;;;;;;;5.77;78.28;101177.92;2187019;80;29417;-64
2022/10/10 00:42:22;;;;;;;14.33;7.72;;;;;;;5.75;78.17;101173.94;2144764;82;28449;-64
2022/10/10 00:45:32;;;;;;;17.95;8.60;;;;;;;5.74;78.23;101174.84;2170596;81;28580;-64
2022/10/10 00:48:42;;;;;;;16.85;8.35;;;;;;;5.71;78.18;101168.23;2168999;80;31868;-64
2022/10/10 00:51:47;;;;;;;20.12;8.08;;;;;;;5.70;78.22;101164.28;2175502;80;33011;-64
2022/10/10 00:54:49;;;;;;;14.38;8.15;;;;;;;5.67;78.28;101157.24;2193956;80;29792;-64
2022/10/10 00:57:50;;;;;;;19.82;7.30;;;;;;;5.65;78.18;101154.16;2210811;80;27935;-64
2022/10/10 01:00:53;;;;;;;17.85;8.93;;;;;;;5.62;78.22;101155.98;2205424;79;28698;-64
2022/10/10 01:04:00;;;;;;;12.82;8.05;;;;;;;5.60;78.21;101148.92;2191258;79;32158;-64
2022/10/10 01:07:08;;;;;;;19.32;8.60;;;;;;;5.56;78.22;101151.19;2198615;79;32898;-64
2022/10/10 01:10:13;;;;;;;17.15;8.30;;;;;;;5.53;78.24;101150.80;2194413;80;29828;-63
2022/10/10 01:13:35;;;;;;;20.27;9.20;;;;;;;5.51;78.34;101135.32;2192168;79;27805;-64
2022/10/10 01:17:08;;;;;;;16.65;9.73;;;;;;;5.46;78.34;101128.75;2196813;79;29286;-65
2022/10/10 01:20:39;;;;;;;15.43;8.55;;;;;;;5.44;78.41;101130.55;2182378;80;31048;-64
2022/10/10 01:24:15;;;;;;;23.22;8.00;;;;;;;5.41;78.43;101135.91;2138024;82;33018;-64
2022/10/10 01:27:31;;;;;;;20.65;8.58;;;;;;;5.38;78.49;101124.45;2126951;82;35271;-64
2022/10/10 01:30:34;;;;;;;17.92;9.53;;;;;;;5.32;78.62;101122.77;2167423;81;27778;-66
2022/10/10 01:33:56;;;;;;;17.48;9.90;;;;;;;5.28;78.61;101114.41;2168923;81;29089;-64
2022/10/10 01:37:20;;;;;;;22.35;9.90;;;;;;;5.25;78.71;101119.76;2165345;81;30970;-65
2022/10/10 01:40:45;;;;;;;15.65;9.13;;;;;;;5.21;78.68;101110.96;2164347;81;33004;-66
2022/10/10 01:43:56;;;;;;;28.80;10.20;;;;;;;5.20;78.78;101114.98;2137244;82;29748;-66
2022/10/10 01:46:58;;;;;;;16.23;9.50;;;;;;;5.17;78.88;101111.90;2138893;82;27844;-66
2022/10/10 01:50:04;;;;;;;17.37;9.65;;;;;;;5.16;79.12;101102.17;2148194;82;28698;-67
2022/10/10 01:53:27;;;;;;;20.70;10.08;;;;;;;5.14;79.28;101088.03;2171591;80;31063;-66
2022/10/10 01:56:43;;;;;;;18.75;9.70;;;;;;;5.14;79.32;101078.73;2134616;81;33025;-65
2022/10/10 02:00:16;;;;;;;19.30;11.15;;;;;;;5.15;79.28;101081.81;2149017;82;29417;-66
2022/10/10 02:03:28;;;;;;;17.27;9.85;;;;;;;5.15;79.51;101089.36;2151902;82;27728;-67
2022/10/10 02:06:40;;;;;;;16.75;9.28;;;;;;;5.17;79.53;101081.35;2141137;82;29737;-65
2022/10/10 02:09:42;;;;;;;25.02;10.60;;;;;;;5.15;79.51;101076.51;2128641;81;31075;-65
2022/10/10 02:12:45;;;;;;;22.65;11.83;;;;;;;5.15;79.53;101076.51;2136889;81;34104;-66
2022/10/10 02:15:50;;;;;;;18.25;11.25;;;;;;;5.14;79.52;101074.75;2129188;81;29710;-68
2022/10/10 02:18:53;;;;;;;17.12;11.10;;;;;;;5.14;79.44;101076.08;2131495;82;27926;-66
2022/10/10 02:21:55;;;;;;;21.62;12.23;;;;;;;5.12;79.43;101068.61;2122821;82;28589;-66
2022/10/10 02:24:56;;;;;;;24.45;12.43;;;;;;;5.12;79.54;101065.95;2102733;84;31369;-67
2022/10/10 02:28:18;;;;;;;24.50;11.85;;;;;;;5.11;79.47;101067.72;2105040;83;33370;-66
2022/10/10 02:31:34;;;;;;;25.43;11.57;;;;;;;5.10;79.61;101063.77;2194413;80;29390;-66
2022/10/10 02:34:37;;;;;;;;;;;;;;;5.08;79.58;101061.12;2185576;80;27700;-66
2022/10/10 02:37:40;;;;;;;26.25;12.43;;;;;;;5.08;79.75;101062.44;2182207;80;29100;-65
2022/10/10 02:40:46;;;;;;;23.55;11.85;;;;;;;5.05;79.70;101053.19;2145867;81;31082;-64
2022/10/10 02:43:50;;;;;;;22.87;12.18;;;;;;;5.05;79.70;101044.36;2128249;82;33339;-64
2022/10/10 02:46:51;;;;;;;25.08;12.37;;;;;;;5.05;79.82;101041.23;2107715;82;29284;-64
2022/10/10 02:49:52;;;;;;;24.40;12.00;;;;;;;5.04;79.93;101042.17;2093413;81;27734;-65
2022/10/10 02:52:55;;;;;;;23.57;12.53;;;;;;;5.05;79.81;101037.25;2129372;82;29063;-64
2022/10/10 02:55:56;;;;;;;18.62;11.73;;;;;;;5.06;79.90;101039.01;2164233;81;32259;-63
2022/10/10 02:58:57;;;;;;;27.05;13.03;;;;;;;5.06;80.18;101031.04;2173430;81;33387;-64
2022/10/10 03:01:59;;;;;;;20.70;12.45;;;;;;;5.06;80.15;101026.20;2166746;80;29989;-63
2022/10/10 03:05:01;;;;;;;21.80;12.37;;;;;;;5.07;80.28;101019.52;2141308;81;27606;-63
2022/10/10 03:08:02;;;;;;;23.38;12.20;;;;;;;5.07;80.17;101014.20;2149445;81;28705;-63
2022/10/10 03:11:05;;;;;;;22.45;11.97;;;;;;;5.09;80.25;101022.17;2149417;82;31433;-64
2022/10/10 03:14:06;;;;;;;25.17;13.18;;;;;;;5.10;80.43;101014.63;2147143;81;33366;-65
2022/10/10 03:17:08;;;;;;;22.60;11.78;;;;;;;5.09;80.38;101013.73;2145486;81;30732;-64
2022/10/10 03:20:10;;;;;;;26.15;13.25;;;;;;;5.09;80.39;101018.19;2147441;81;27805;-63
2022/10/10 03:23:12;;;;;;;24.27;13.40;;;;;;;5.09;80.36;101013.73;2134983;81;29802;-62
2022/10/10 03:26:14;;;;;;;20.52;13.53;;;;;;;5.09;80.40;101011.55;2132422;81;30820;-61
2022/10/10 03:29:15;;;;;;;28.70;14.05;;;;;;;5.09;80.46;100996.94;2149356;81;33387;-63
2022/10/10 03:32:16;;;;;;;22.87;13.25;;;;;;;5.09;80.45;101000.46;2151391;80;29813;-67
2022/10/10 03:35:17;;;;;;;23.38;14.35;;;;;;;5.10;80.48;100996.91;2173597;80;27834;-66
2022/10/10 03:38:19;;;;;;;22.90;12.70;;;;;;;5.11;80.50;100993.35;2186228;80;29069;-65
2022/10/10 03:41:20;;;;;;;21.27;13.25;;;;;;;5.11;80.66;100992.02;2202512;80;31023;-66
2022/10/10 03:44:22;;;;;;;27.58;12.78;;;;;;;5.12;80.52;100985.81;2138887;82;34141;-67
2022/10/10 03:47:23;;;;;;;20.77;13.30;;;;;;;5.12;80.45;100984.48;2097881;83;31507;-65
2022/10/10 03:50:25;;;;;;;26.35;12.55;;;;;;;5.12;80.39;100980.97;2096338;84;27743;-64
2022/10/10 03:53:26;;;;;;;21.90;13.60;;;;;;;5.11;80.37;100984.05;2126661;83;28709;-66
2022/10/10 03:56:28;;;;;;;28.80;12.78;;;;;;;5.11;80.43;100982.73;2156682;81;31052;-66
2022/10/10 03:59:29;;;;;;;25.92;12.68;;;;;;;5.09;80.37;100976.56;2141455;80;33379;-66
2022/10/10 04:02:30;;;;;;;23.60;12.90;;;;;;;5.06;80.41;100973.95;2127114;82;30476;-67
2022/10/10 04:05:35;;;;;;;21.27;12.33;;;;;;;5.05;80.36;100972.19;2141948;82;27771;-66
2022/10/10 04:08:37;;;;;;;25.62;12.15;;;;;;;5.03;80.30;100968.71;2144830;82;28440;-65
2022/10/10 04:11:39;;;;;;;27.07;12.63;;;;;;;5.01;80.34;100959.89;2132963;82;31066;-65
2022/10/10 04:14:41;;;;;;;23.90;12.90;;;;;;;4.98;80.25;100962.59;2140189;82;33521;-65
2022/10/10 04:17:42;;;;;;;22.55;12.68;;;;;;;4.97;80.32;100956.84;2128639;82;30546;-65
2022/10/10 04:20:43;;;;;;;21.70;13.32;;;;;;;4.94;80.36;100954.23;2166568;81;27614;-64
2022/10/10 04:23:45;;;;;;;24.05;13.05;;;;;;;4.91;80.45;100945.87;2141813;82;29081;-64
2022/10/10 04:26:46;;;;;;;25.00;12.82;;;;;;;4.90;80.48;100941.90;2163418;81;31424;-65
2022/10/10 04:29:47;;;;;;;25.72;14.30;;;;;;;4.88;80.46;100941.08;2163267;81;33267;-64
2022/10/10 04:32:48;;;;;;;26.95;14.75;;;;;;;4.86;80.45;100940.64;2125965;82;29107;-64
2022/10/10 04:35:49;;;;;;;26.42;14.87;;;;;;;4.85;80.56;100939.33;2172157;81;28361;-65
2022/10/10 04:38:50;;;;;;;30.65;14.47;;;;;;;4.84;80.46;100936.23;2153324;82;29057;-66
2022/10/10 04:41:51;;;;;;;24.98;14.35;;;;;;;4.82;80.47;100938.94;2148189;82;32300;-66
2022/10/10 04:44:52;;;;;;;33.53;15.88;;;;;;;4.81;80.38;100934.95;2131348;82;33121;-66
2022/10/10 04:47:54;;;;;;;25.88;14.98;;;;;;;4.80;80.40;100934.56;2153484;81;30430;-66
2022/10/10 04:50:58;;;;;;;27.25;15.18;;;;;;;4.77;80.51;100934.59;2135722;82;27718;-66
2022/10/10 04:53:59;;;;;;;31.23;15.83;;;;;;;4.75;80.46;100937.72;2169374;81;28744;-66
2022/10/10 04:57:01;;;;;;;26.55;14.13;;;;;;;4.73;80.33;100932.89;2145057;82;31450;-67
2022/10/10 05:00:04;;;;;;;26.85;14.25;;;;;;;4.69;80.33;100932.06;2156705;82;35175;-66
2022/10/10 05:03:08;;;;;;;27.70;15.55;;;;;;;4.67;80.38;100935.19;2135847;82;29361;-66
2022/10/10 05:06:09;;;;;;;28.62;15.75;;;;;;;4.64;80.50;100939.20;2135534;82;27877;-66
2022/10/10 05:09:11;;;;;;;24.63;15.23;;;;;;;4.62;80.46;100938.34;2171529;81;29077;-66
2022/10/10 05:12:12;;;;;;;27.82;14.35;;;;;;;4.59;80.45;100932.65;2169211;80;32257;-66
2022/10/10 05:15:14;;;;;;;28.90;14.83;;;;;;;4.56;80.50;100924.73;2176829;81;33323;-65
2022/10/10 05:18:15;;;;;;;24.15;15.72;;;;;;;4.56;80.63;100933.55;2171357;80;30517;-66
2022/10/10 05:21:16;;;;;;;27.67;15.00;;;;;;;4.55;80.66;100925.63;2169085;81;27712;-68
2022/10/10 05:24:18;;;;;;;31.40;14.80;;;;;;;4.55;80.74;100920.31;2171657;80;29027;-66
2022/10/10 05:27:19;;;;;;;30.12;14.73;;;;;;;4.56;80.93;100916.30;2175127;80;31648;-67
2022/10/10 05:30:20;;;;;;;29.27;14.85;;;;;;;4.57;80.93;100914.54;2168790;80;33374;-66
2022/10/10 05:33:22;;;;;;;29.00;16.30;;;;;;;4.59;81.15;100912.74;2169020;80;29790;-66
2022/10/10 05:36:23;;;;;;;29.52;15.75;;;;;;;4.62;81.22;100918.02;2172119;80;27741;-67
2022/10/10 05:39:24;;;;;;;26.10;16.12;;;;;;;4.65;81.31;100916.61;2171576;80;28724;-66
2022/10/10 05:42:25;;;;;;;27.27;15.68;;;;;;;4.67;81.24;100912.16;2172448;80;32151;-66
2022/10/10 05:45:27;;;;;;;27.62;15.40;;;;;;;4.70;81.26;100915.23;2169684;80;34126;-66
2022/10/10 05:48:28;;;;;;;31.50;15.75;;;;;;;4.73;81.33;100920.94;2170230;80;30066;-67
2022/10/10 05:51:29;;;;;;;28.98;15.03;;;;;;;4.76;81.44;100920.43;2168703;81;28485;-66
2022/10/10 05:54:30;;;;;;;27.13;14.85;;;;;;;4.80;81.39;100923.94;2147171;80;28980;-66
2022/10/10 05:57:31;;;;;;;23.70;13.83;;;;;;;4.84;81.63;100924.30;2157498;81;30033;-67
2022/10/10 06:00:33;;;;;;;23.02;13.98;;;;;;;4.90;81.58;100918.00;2136743;82;34181;-67
2022/10/10 06:03:35;;;;;;;28.05;15.00;;;;;;;4.97;81.95;100914.36;2170473;81;30379;-66
2022/10/10 06:06:36;;;;;;;26.15;14.50;;;;;;;5.06;81.88;100910.21;2155497;81;27704;-67
2022/10/10 06:09:37;;;;;;;25.60;14.33;;;;;;;5.17;82.21;100908.27;2153501;81;29069;-66
2022/10/10 06:12:39;;;;;;;36.35;15.65;;;;;;;5.28;81.90;100905.86;2173063;81;31460;-66
2022/10/10 06:15:42;;;;;;;28.92;16.00;;;;;;;5.37;81.83;100899.51;2144607;82;33610;-66
2022/10/10 06:18:44;;;;;;;26.62;14.60;;;;;;;5.45;81.77;100901.59;2142618;82;29360;-64
2022/10/10 06:21:45;;;;;;;25.40;14.45;;;;;;;5.53;81.73;100901.44;2144849;82;28366;-66
2022/10/10 06:24:47;;;;;;;24.12;15.28;;;;;;;5.61;81.73;100905.70;2163593;81;28661;-66
2022/10/10 06:27:47;;;;;;;26.95;14.73;;;;;;;5.71;81.72;100909.50;2158562;82;34736;-66
2022/10/10 06:30:49;;;;;;;33.58;15.95;;;;;;;5.80;81.60;100908.44;2183743;80;32722;-65
2022/10/10 06:33:52;;;;;;;24.75;14.53;;;;;;;5.91;81.64;100903.77;2187012;80;30457;-65
2022/10/10 06:36:53;;;;;;;28.23;14.38;;;;;;;6.00;81.68;100903.63;2191205;80;27636;-66
2022/10/10 06:39:55;;;;;;;27.73;16.40;;;;;;;6.11;81.67;100903.41;2188641;80;28887;-66
2022/10/10 06:42:56;;;;;;;29.52;16.52;;;;;;;6.24;81.64;100902.66;2191581;80;32226;-66
2022/10/10 06:45:58;;;;;;;28.65;17.10;;;;;;;6.39;81.63;100904.13;2183343;80;34436;-66
2022/10/10 06:48:59;;;;;;;31.23;16.17;;;;;;;6.53;81.60;100895.84;2188546;80;29727;-65
2022/10/10 06:52:00;;;;;;;27.70;16.23;;;;;;;6.71;81.58;100895.84;2194650;81;28016;-65
2022/10/10 06:55:03;;;;;;;27.67;16.45;;;;;;;6.89;81.46;100900.30;2177121;81;29104;-65
2022/10/10 06:58:04;;;;;;;35.85;17.90;;;;;;;7.09;81.34;100898.02;2186096;80;32202;-65
2022/10/10 07:01:05;;;;;;;27.70;17.07;;;;;;;7.29;81.17;100893.50;2185376;80;34243;-66
2022/10/10 07:04:08;;;;;;;28.30;15.95;;;;;;;7.49;81.11;100897.42;2180696;80;31562;-67
2022/10/10 07:07:10;;;;;;;30.70;16.70;;;;;;;7.69;80.94;100894.67;2148062;81;27730;-66
2022/10/10 07:10:13;;;;;;;29.75;16.35;;;;;;;7.91;80.82;100894.45;2174192;80;28653;-66
2022/10/10 07:13:15;;;;;;;26.27;15.45;;;;;;;8.15;80.65;100885.77;2173197;80;31278;-66
2022/10/10 07:16:17;;;;;;;29.55;16.73;;;;;;;8.37;80.35;100885.98;2167768;80;34229;-66
2022/10/10 07:19:20;;;;;;;22.75;15.70;;;;;;;8.54;79.44;100886.84;2172737;81;30691;-66
2022/10/10 07:22:21;;;;;;;26.15;16.73;;;;;;;8.70;79.55;100880.52;2172064;79;27773;-66
2022/10/10 07:25:23;;;;;;;26.77;15.20;;;;;;;8.89;79.14;100870.57;2173169;81;29933;-67
2022/10/10 07:28:24;;;;;;;26.77;15.85;;;;;;;9.09;78.94;100868.58;2167534;80;31909;-66
2022/10/10 07:31:26;;;;;;;21.97;14.10;;;;;;;9.40;79.38;100865.69;2166726;80;34116;-67
2022/10/10 07:34:27;;;;;;;26.73;15.20;;;;;;;9.67;79.08;100875.00;2169890;80;29707;-66
2022/10/10 07:37:28;;;;;;;24.10;14.93;;;;;;;9.90;77.86;100873.25;2168738;80;27744;-66
2022/10/10 07:40:29;;;;;;;25.92;14.83;;;;;;;10.16;78.30;100874.94;2172565;80;28693;-66
2022/10/10 07:43:31;;;;;;;20.40;12.90;;;;;;;10.42;77.42;100876.22;2170366;81;31467;-65
2022/10/10 07:46:32;;;;;;;27.55;13.32;;;;;;;10.71;77.45;100876.84;2173714;80;33396;-66
2022/10/10 07:49:33;;;;;;;27.52;15.15;;;;;;;10.95;76.13;100866.91;2173138;80;30191;-66
2022/10/10 07:52:34;;;;;;;25.55;14.20;;;;;;;11.12;76.16;100873.37;2174077;80;28491;-66
2022/10/10 07:55:41;;;;;;;24.27;12.88;;;;;;;11.25;75.91;100871.45;2165790;79;28708;-67
2022/10/10 07:58:42;;;;;;;23.07;13.40;;;;;;;11.45;75.97;100859.42;2179079;81;31127;-66
2022/10/10 08:01:43;;;;;;;24.95;12.75;;;;;;;11.64;74.58;100864.86;2183694;80;32945;-66
2022/10/10 08:04:44;;;;;;;24.00;13.60;;;;;;;11.69;74.36;100858.34;2185126;80;30459;-66
2022/10/10 08:07:46;;;;;;;22.37;12.88;;;;;;;11.82;74.00;100861.80;2164689;81;28356;-66
2022/10/10 08:10:47;;;;;;;23.60;12.13;;;;;;;11.94;74.22;100851.83;2126403;81;29060;-65
2022/10/10 08:13:50;;;;;;;20.05;12.35;;;;;;;12.05;73.09;100843.80;2170715;80;31972;-66
2022/10/10 08:16:51;;;;;;;22.80;12.60;;;;;;;12.03;73.02;100846.53;2150236;82;33003;-66
2022/10/10 08:19:52;;;;;;;20.52;11.55;;;;;;;12.03;73.39;100842.51;2149668;82;30473;-66
2022/10/10 08:22:54;;;;;;;19.60;13.00;;;;;;;12.10;72.65;100839.95;2138469;82;27653;-66
2022/10/10 08:26:01;;;;;;;21.10;12.43;;;;;;;12.10;72.86;100835.91;2127564;83;28486;-67
2022/10/10 08:29:03;;;;;;;17.85;11.88;;;;;;;12.14;72.56;100831.26;2121941;83;31056;-64
2022/10/10 08:32:05;;;;;;;19.32;10.95;;;;;;;12.17;72.14;100825.75;2122156;83;33352;-64
2022/10/10 08:35:07;;;;;;;17.30;11.03;;;;;;;12.21;71.85;100827.80;2189662;79;29386;-66
2022/10/10 08:38:08;;;;;;;18.95;11.03;;;;;;;12.25;72.03;100827.58;2209052;79;27641;-66
2022/10/10 08:41:51;;;;;;;19.17;11.38;;;;;;;12.34;71.81;100818.69;2166453;80;29922;-66
2022/10/10 08:44:56;;;;;;;17.73;10.80;;;;;;;12.45;72.22;100823.94;2115365;82;31440;-62
2022/10/10 08:48:06;;;;;;;12.00;7.95;;;;;;;12.58;71.92;100814.78;2144409;82;36914;-63
2022/10/10 08:51:13;;;;;;;15.83;9.70;;;;;;;12.73;71.99;100820.36;2134742;82;29958;-65
2022/10/10 08:54:16;;;;;;;19.85;11.00;;;;;;;12.88;71.64;100819.58;2137148;82;27922;-66
2022/10/10 08:57:32;;;;;;;17.57;9.88;;;;;;;12.97;71.28;100812.86;2140765;82;28693;-65
2022/10/10 09:00:44;;;;;;;15.23;9.30;;;;;;;13.10;71.51;100801.45;2117853;83;31470;-65
2022/10/10 09:03:57;;;;;;;18.67;9.73;;;;;;;13.27;71.82;100801.91;2095713;84;32881;-65
2022/10/10 09:07:17;;;;;;;15.25;9.88;;;;;;;13.37;71.24;100800.48;2098335;84;29369;-65
2022/10/10 09:10:36;;;;;;;17.27;9.70;;;;;;;13.47;70.90;100786.09;2084619;83;27811;-65
2022/10/10 09:13:43;;;;;;;13.68;9.63;;;;;;;13.55;69.95;100779.80;2061548;84;29067;-65
2022/10/10 09:17:19;;;;;;;18.60;9.05;;;;;;;13.54;70.46;100752.97;2145611;82;31898;-66
2022/10/10 09:20:39;;;;;;;;;;;;;;;13.74;69.78;100776.95;2142062;82;33410;-64
2022/10/10 09:23:58;;;;;;;13.53;9.08;;;;;;;13.81;69.59;100767.59;2131100;82;29692;-64
2022/10/10 09:27:05;;;;;;;15.08;9.40;;;;;;;13.91;69.78;100776.48;2138610;81;27859;-64
2022/10/10 09:30:20;;;;;;;17.42;9.45;;;;;;;13.98;69.06;100769.81;2136262;83;28678;-65
2022/10/10 09:33:33;;;;;;;18.15;9.20;;;;;;;14.03;68.80;100772.24;2112559;82;31214;-65
2022/10/10 09:36:36;;;;;;;16.77;8.68;;;;;;;14.15;69.07;100765.30;2138275;83;33367;-65
2022/10/10 09:39:57;;;;;;;14.65;8.35;;;;;;;14.23;68.53;100767.09;2140276;82;29890;-66
2022/10/10 09:43:14;;;;;;;15.00;8.70;;;;;;;14.32;66.92;100757.57;2142979;81;27720;-65
2022/10/10 09:46:16;;;;;;;15.50;9.38;;;;;;;14.41;68.20;100753.86;2140011;82;28909;-65
2022/10/10 09:49:18;;;;;;;15.20;8.18;;;;;;;14.73;67.98;100746.22;2147014;82;32169;-64
2022/10/10 09:52:27;;;;;;;19.35;8.43;;;;;;;14.73;67.98;100746.22;2147131;82;34157;-65
2022/10/10 09:55:38;;;;;;;15.83;8.35;;;;;;;14.84;67.34;100736.98;2144543;82;28812;-65
2022/10/10 09:58:43;;;;;;;14.40;7.45;;;;;;;14.96;67.37;100741.27;2148623;82;27724;-65
2022/10/10 10:01:51;;;;;;;14.28;8.48;;;;;;;15.11;67.96;100738.98;2142961;81;52851;-64
2022/10/10 10:04:54;;;;;;;13.50;7.45;;;;;;;15.28;66.65;100734.36;2142178;82;31636;-65
2022/10/10 10:07:55;;;;;;;14.23;8.13;;;;;;;15.22;65.91;100711.33;2129331;82;32961;-64
2022/10/10 10:10:58;;;;;;;12.33;7.87;;;;;;;15.38;65.79;100734.16;2135073;81;30494;-65
2022/10/10 10:14:04;;;;;;;14.90;7.62;;;;;;;15.45;65.71;100725.19;2132703;82;27845;-65
2022/10/10 10:17:13;;;;;;;11.80;7.00;;;;;;;15.55;65.27;100729.05;2126578;82;29065;-64
2022/10/10 10:20:34;;;;;;;16.40;7.22;;;;;;;15.67;65.34;100726.52;2094968;83;31289;-64
2022/10/10 10:23:43;;;;;;;12.47;6.87;;;;;;;15.79;65.55;100721.67;2132613;82;33013;-65
2022/10/10 10:26:46;;;;;;;15.35;7.12;;;;;;;15.88;65.06;100711.67;2121866;82;30251;-64
2022/10/10 10:29:51;;;;;;;10.90;6.70;;;;;;;15.99;63.92;100706.03;2128097;83;27831;-64
2022/10/10 10:33:01;;;;;;;15.10;6.78;;;;;;;16.06;63.94;100705.98;2131708;83;29771;-65
2022/10/10 10:36:48;;;;;;;9.63;6.53;;;;;;;16.12;63.35;100709.64;2124938;83;32014;-64
2022/10/10 10:40:27;;;;;;;12.07;7.50;;;;;;;16.20;64.12;100702.38;2128446;82;33060;-64
2022/10/10 10:43:51;;;;;;;11.00;7.37;;;;;;;16.32;64.30;100698.84;2139680;82;29196;-65
2022/10/10 10:47:27;;;;;;;12.00;6.85;;;;;;;16.44;63.47;100689.03;2143133;82;27697;-65
2022/10/10 10:50:38;;;;;;;;;;;;;;;16.53;62.97;100682.13;2148899;82;29334;-64
2022/10/10 10:54:05;;;;;;;14.40;6.58;;;;;;;16.65;62.98;100679.92;2148060;81;32244;-65
2022/10/10 10:57:17;;;;;;;17.12;7.17;;;;;;;16.81;63.48;100678.38;2128020;82;33559;-64
2022/10/10 11:00:20;;;;;;;15.32;6.45;;;;;;;16.97;62.84;100671.92;2131732;81;28796;-65
2022/10/10 11:03:30;;;;;;;16.25;7.35;;;;;;;17.08;62.46;100665.75;2145914;82;27827;-65
2022/10/10 11:07:01;;;;;;;11.80;7.22;;;;;;;17.14;62.17;100653.99;2146808;81;28659;-64
2022/10/10 11:10:23;;;;;;;11.43;6.37;;;;;;;17.24;61.67;100658.27;2106769;82;31428;-66
2022/10/10 11:13:53;;;;;;;10.90;5.92;;;;;;;17.37;62.08;100652.83;2081141;83;33076;-65
2022/10/10 11:17:08;;;;;;;7.17;5.60;;;;;;;17.52;61.80;100650.83;2072827;82;29388;-66
2022/10/10 11:20:31;;;;;;;11.05;6.22;;;;;;;17.61;61.43;100643.39;2086842;83;27729;-66
2022/10/10 11:23:43;;;;;;;14.87;6.10;;;;;;;17.71;60.64;100638.13;2083562;82;29572;-65
2022/10/10 11:26:49;;;;;;;9.53;6.42;;;;;;;17.72;60.69;100631.73;2082102;82;32299;-65
2022/10/10 11:30:05;;;;;;;11.65;6.62;;;;;;;17.83;61.19;100634.14;2092851;83;33387;-65
2022/10/10 11:33:17;;;;;;;9.65;5.37;;;;;;;17.91;60.72;100631.70;2093617;83;29502;-65
2022/10/10 11:36:22;;;;;;;9.33;5.78;;;;;;;18.00;60.05;100620.69;2133824;81;27645;-64
2022/10/10 11:39:46;;;;;;;11.70;5.90;;;;;;;18.03;59.40;100596.95;2153094;81;28697;-65
2022/10/10 11:42:55;;;;;;;11.22;6.22;;;;;;;18.07;57.64;100578.59;2151888;81;31078;-65
2022/10/10 11:46:17;;;;;;;11.78;6.40;;;;;;;18.17;58.95;100583.66;2141388;80;33354;-65
2022/10/10 11:49:53;;;;;;;10.82;5.75;;;;;;;18.25;58.67;100579.00;2150199;81;29446;-65
2022/10/10 11:53:20;;;;;;;11.75;5.72;;;;;;;18.35;57.60;100573.72;2143964;81;27730;-66
2022/10/10 11:56:39;;;;;;;9.33;5.70;;;;;;;18.45;57.70;100565.73;2141894;81;29596;-65
2022/10/10 11:59:51;;;;;;;9.70;5.90;;;;;;;18.56;57.61;100567.60;2153378;80;32294;-66
2022/10/10 12:02:52;;;;;;;14.20;5.62;;;;;;;18.68;58.07;100550.34;2153587;80;33019;-66
2022/10/10 12:06:15;;;;;;;10.43;5.80;;;;;;;18.81;58.09;100544.80;2146287;81;30168;-66
2022/10/10 12:09:33;;;;;;;9.18;4.78;;;;;;;18.93;57.85;100545.15;2146583;81;27724;-66
2022/10/10 12:12:39;;;;;;;9.80;5.58;;;;;;;19.01;57.09;100534.20;2100892;84;29827;-66
2022/10/10 12:15:41;;;;;;;6.35;5.10;;;;;;;19.07;56.44;100532.33;2112493;81;31039;-66
2022/10/10 12:18:46;;;;;;;7.92;5.85;;;;;;;19.11;56.43;100517.52;2166164;81;33545;-66
2022/10/10 12:22:02;;;;;;;9.58;5.28;;;;;;;19.13;57.09;100507.39;2143844;81;29393;-66
2022/10/10 12:25:19;;;;;;;9.30;6.33;;;;;;;19.14;55.88;100503.69;2137742;80;28228;-65
2022/10/10 12:28:38;;;;;;;13.38;5.83;;;;;;;19.10;56.03;100499.02;2144302;81;29992;-65
2022/10/10 12:31:40;;;;;;;8.65;5.28;;;;;;;19.10;55.75;100501.73;2130517;81;30842;-65
2022/10/10 12:34:53;;;;;;;10.40;5.60;;;;;;;19.08;54.50;100500.11;2151530;81;33899;-65
2022/10/10 12:38:15;;;;;;;10.68;5.33;;;;;;;19.07;55.54;100488.88;2142162;81;29899;-65
2022/10/10 12:41:17;;;;;;;10.30;5.45;;;;;;;19.07;55.93;100483.45;2123598;81;27781;-65
2022/10/10 12:44:43;;;;;;;10.15;5.70;;;;;;;19.08;55.66;100485.17;2133570;81;29098;-65
2022/10/10 12:47:45;;;;;;;12.88;5.35;;;;;;;19.05;54.48;100475.92;2142990;82;31744;-65
2022/10/10 12:50:59;;;;;;;13.00;5.62;;;;;;;19.05;55.65;100473.20;2140793;81;33914;-65
2022/10/10 12:54:04;;;;;;;8.95;4.83;;;;;;;19.08;55.66;100474.31;2111226;83;30666;-65
2022/10/10 12:57:14;;;;;;;14.00;6.37;;;;;;;19.13;55.08;100468.86;2116856;81;27754;-64
2022/10/10 13:00:24;;;;;;;9.63;5.62;;;;;;;19.17;55.45;100472.69;2105467;83;29509;-65
2022/10/10 13:03:44;;;;;;;8.85;5.97;;;;;;;19.18;55.26;100467.14;2101240;83;32230;-66
2022/10/10 13:06:48;;;;;;;8.33;5.70;;;;;;;19.23;55.38;100462.68;2098968;83;34371;-65
2022/10/10 13:09:53;;;;;;;9.47;5.93;;;;;;;19.28;54.94;100455.87;2156722;80;29378;-66
2022/10/10 13:13:16;;;;;;;8.20;4.67;;;;;;;19.34;54.73;100454.48;2171233;81;27632;-65
2022/10/10 13:16:22;;;;;;;7.05;5.22;;;;;;;19.38;54.15;100458.67;2172015;80;29951;-66
2022/10/10 13:19:24;;;;;;;10.18;5.72;;;;;;;19.44;54.79;100454.56;2167386;81;31066;-65
2022/10/10 13:22:29;;;;;;;10.25;5.53;;;;;;;19.48;54.69;100457.40;2170200;81;32990;-65
2022/10/10 13:25:33;;;;;;;8.65;5.08;;;;;;;19.54;54.67;100443.78;2176365;80;30054;-65
2022/10/10 13:28:34;;;;;;;9.83;6.10;;;;;;;19.61;54.58;100442.75;2120889;82;27614;-65
2022/10/10 13:31:37;;;;;;;7.62;5.62;;;;;;;19.66;54.11;100429.64;2143491;81;27694;-65
2022/10/10 13:34:44;;;;;;;9.63;6.17;;;;;;;19.69;53.70;100426.66;2147547;81;31863;-65
2022/10/10 13:37:54;;;;;;;9.18;6.53;;;;;;;19.70;53.91;100436.03;2138132;82;33814;-65
2022/10/10 13:40:56;;;;;;;11.25;6.75;;;;;;;19.69;53.69;100420.72;2148043;82;29410;-65
2022/10/10 13:43:58;;;;;;;10.08;6.60;;;;;;;19.65;53.65;100422.48;2150583;82;27778;-65
2022/10/10 13:47:11;;;;;;;12.47;5.97;;;;;;;19.59;53.91;100416.57;2140091;82;29959;-66
2022/10/10 13:50:33;;;;;;;11.22;5.92;;;;;;;19.55;53.59;100411.03;2034952;86;31942;-67
2022/10/10 13:53:45;;;;;;;7.50;6.22;;;;;;;19.48;53.95;100415.77;2020541;87;34261;-65
2022/10/10 13:56:48;;;;;;;11.90;6.05;;;;;;;19.37;53.78;100417.55;2072206;85;27835;-63
2022/10/10 14:00:05;;;;;;;13.95;6.17;;;;;;;19.31;54.27;100431.64;2082679;85;27668;-64
2022/10/10 14:03:18;;;;;;;7.87;5.50;;;;;;;19.27;54.38;100423.41;2066482;85;29586;-65
2022/10/10 14:06:22;;;;;;;16.65;6.45;;;;;;;19.24;54.36;100420.44;2057012;85;33213;-66
2022/10/10 14:09:37;;;;;;;6.62;5.83;;;;;;;19.20;54.14;100416.25;2069961;85;32991;-64
2022/10/10 14:12:57;;;;;;;10.70;6.30;;;;;;;19.14;54.52;100412.71;2057788;85;29482;-65
2022/10/10 14:16:23;;;;;;;11.53;6.30;;;;;;;19.11;54.69;100411.61;2066084;85;28223;-64
2022/10/10 14:19:25;;;;;;;9.78;5.87;;;;;;;19.09;54.63;100406.32;2062411;85;30128;-65
2022/10/10 14:22:26;;;;;;;10.53;6.05;;;;;;;19.10;54.90;100406.69;2063100;84;31107;-66